createdAt,value
2023-04-23T00:00:34.397Z,32.54
2023-04-23T00:01:34.352Z,32.54
2023-04-23T00:02:34.406Z,32.59
2023-04-23T00:03:34.529Z,32.60
2023-04-23T00:04:34.579Z,32.47
2023-04-23T00:05:34.169Z,32.54
2023-04-23T00:06:34.103Z,32.49
2023-04-23T00:07:34.056Z,32.51
2023-04-23T00:08:34.017Z,32.46
2023-04-23T00:09:33.964Z,32.44
2023-04-23T00:10:33.930Z,32.45
2023-04-23T00:11:33.876Z,32.57
2023-04-23T00:12:33.833Z,32.53
2023-04-23T00:13:33.782Z,32.53
2023-04-23T00:14:33.730Z,32.59
2023-04-23T00:15:33.688Z,32.57
2023-04-23T00:16:33.675Z,32.67
2023-04-23T00:17:33.626Z,32.60
2023-04-23T00:18:33.597Z,32.47
2023-04-23T00:19:33.516Z,32.54
2023-04-23T00:20:33.454Z,32.61
2023-04-23T00:21:33.409Z,32.60
2023-04-23T00:22:33.367Z,32.59
2023-04-23T00:23:33.329Z,32.51
2023-04-23T00:24:33.262Z,32.68
2023-04-23T00:25:33.214Z,32.54
2023-04-23T00:26:33.183Z,32.51
2023-04-23T00:27:33.149Z,32.63
2023-04-23T00:28:33.079Z,32.53
2023-04-23T00:29:33.136Z,32.62
2023-04-23T00:30:33.002Z,32.67
2023-04-23T00:31:32.988Z,32.55
2023-04-23T00:32:32.953Z,32.59
2023-04-23T00:33:32.872Z,32.52
2023-04-23T00:34:32.828Z,32.52
2023-04-23T00:35:32.784Z,32.52
2023-04-23T00:36:32.743Z,32.62
2023-04-23T00:37:32.773Z,32.59
2023-04-23T00:38:32.636Z,32.56
2023-04-23T00:39:32.602Z,32.60
2023-04-23T00:40:32.555Z,32.56
2023-04-23T00:41:32.503Z,32.57
2023-04-23T00:42:32.475Z,32.52
2023-04-23T00:43:32.423Z,32.56
2023-04-23T00:44:32.372Z,32.63
2023-04-23T00:45:32.362Z,32.63
2023-04-23T00:46:32.295Z,32.59
2023-04-23T00:47:32.294Z,32.52
2023-04-23T00:48:32.188Z,32.50
2023-04-23T00:49:32.133Z,32.48
2023-04-23T00:50:32.083Z,32.51
2023-04-23T00:51:32.023Z,32.55
2023-04-23T00:52:31.981Z,32.52
2023-04-23T00:53:31.937Z,32.59
2023-04-23T00:54:31.885Z,32.55
2023-04-23T00:55:31.859Z,32.62
2023-04-23T00:56:31.806Z,32.61
2023-04-23T00:57:31.773Z,32.64
2023-04-23T00:58:31.732Z,32.59
2023-04-23T00:59:31.671Z,32.61
2023-04-23T01:00:31.639Z,32.58
2023-04-23T01:01:31.684Z,32.63
2023-04-23T01:02:31.766Z,32.59
2023-04-23T01:03:31.601Z,32.72
2023-04-23T01:04:31.464Z,32.59
2023-04-23T01:05:31.421Z,32.58
2023-04-23T01:06:31.383Z,32.65
2023-04-23T01:07:31.328Z,32.53
2023-04-23T01:08:31.269Z,32.55
2023-04-23T01:09:31.220Z,32.66
2023-04-23T01:10:31.176Z,32.57
2023-04-23T01:11:31.120Z,32.56
2023-04-23T01:12:31.070Z,32.59
2023-04-23T01:13:31.029Z,32.59
2023-04-23T01:14:30.969Z,32.57
2023-04-23T01:15:30.927Z,32.64
2023-04-23T01:16:30.879Z,32.63
2023-04-23T01:17:30.865Z,32.59
2023-04-23T01:18:30.786Z,32.58
2023-04-23T01:19:30.736Z,32.59
2023-04-23T01:20:30.696Z,32.57
2023-04-23T01:21:30.641Z,32.55
2023-04-23T01:22:30.603Z,32.58
2023-04-23T01:23:30.560Z,32.58
2023-04-23T01:24:30.525Z,32.59
2023-04-23T01:25:30.466Z,32.61
2023-04-23T01:26:30.424Z,32.59
2023-04-23T01:27:30.370Z,32.57
2023-04-23T01:28:30.332Z,32.66
2023-04-23T01:29:30.291Z,32.64
2023-04-23T01:30:30.233Z,32.67
2023-04-23T01:31:30.368Z,32.62
2023-04-23T01:32:30.151Z,32.62
2023-04-23T01:33:30.073Z,32.64
2023-04-23T01:34:30.024Z,32.70
2023-04-23T01:35:30.010Z,32.60
2023-04-23T01:36:29.967Z,32.62
2023-04-23T01:37:29.903Z,32.72
2023-04-23T01:38:29.860Z,32.71
2023-04-23T01:39:29.851Z,32.62
2023-04-23T01:40:29.778Z,32.78
2023-04-23T01:41:29.740Z,32.79
2023-04-23T01:42:29.689Z,32.74
2023-04-23T01:43:29.745Z,32.77
2023-04-23T01:44:29.601Z,32.76
2023-04-23T01:45:29.562Z,32.85
2023-04-23T01:46:29.541Z,32.84
2023-04-23T01:47:29.556Z,32.87
2023-04-23T01:48:29.417Z,33.06
2023-04-23T01:49:29.382Z,32.97
2023-04-23T01:50:29.324Z,32.84
2023-04-23T01:51:29.282Z,33.00
2023-04-23T01:52:29.233Z,32.86
2023-04-23T01:53:29.250Z,32.87
2023-04-23T01:54:29.149Z,32.89
2023-04-23T01:55:29.099Z,32.91
2023-04-23T01:56:29.069Z,32.89
2023-04-23T01:57:29.007Z,32.94
2023-04-23T01:58:28.944Z,32.94
2023-04-23T01:59:28.899Z,32.91
2023-04-23T02:00:28.861Z,32.89
2023-04-23T02:01:28.887Z,32.83
2023-04-23T02:02:28.948Z,32.81
2023-04-23T02:03:28.844Z,32.86
2023-04-23T02:04:28.760Z,32.79
2023-04-23T02:05:28.627Z,32.77
2023-04-23T02:06:28.586Z,32.91
2023-04-23T02:07:28.551Z,32.84
2023-04-23T02:08:28.502Z,32.97
2023-04-23T02:09:28.450Z,32.96
2023-04-23T02:10:28.396Z,32.91
2023-04-23T02:11:28.357Z,32.79
2023-04-23T02:12:28.302Z,32.93
2023-04-23T02:13:28.271Z,32.95
2023-04-23T02:14:28.222Z,33.12
2023-04-23T02:15:28.178Z,33.07
2023-04-23T02:16:28.241Z,32.97
2023-04-23T02:17:28.183Z,33.20
2023-04-23T02:18:28.039Z,33.08
2023-04-23T02:19:27.995Z,32.97
2023-04-23T02:20:27.946Z,33.00
2023-04-23T02:21:27.880Z,32.96
2023-04-23T02:22:27.839Z,32.87
2023-04-23T02:23:27.797Z,32.78
2023-04-23T02:24:27.741Z,32.73
2023-04-23T02:25:27.697Z,32.79
2023-04-23T02:26:27.649Z,32.85
2023-04-23T02:27:27.599Z,32.88
2023-04-23T02:28:27.562Z,32.82
2023-04-23T02:29:27.520Z,32.86
2023-04-23T02:30:27.477Z,32.75
2023-04-23T02:31:27.466Z,32.91
2023-04-23T02:32:27.389Z,32.83
2023-04-23T02:33:27.341Z,32.75
2023-04-23T02:34:27.291Z,32.69
2023-04-23T02:35:27.265Z,32.75
2023-04-23T02:36:27.198Z,32.88
2023-04-23T02:37:27.210Z,32.74
2023-04-23T02:38:27.121Z,32.83
2023-04-23T02:39:27.059Z,32.81
2023-04-23T02:40:27.019Z,32.72
2023-04-23T02:41:26.975Z,32.74
2023-04-23T02:42:26.921Z,32.77
2023-04-23T02:43:26.885Z,32.85
2023-04-23T02:44:26.830Z,32.66
2023-04-23T02:45:26.800Z,32.76
2023-04-23T02:46:26.764Z,32.63
2023-04-23T02:47:26.727Z,32.69
2023-04-23T02:48:26.671Z,32.98
2023-04-23T02:49:26.626Z,32.85
2023-04-23T02:50:26.587Z,32.77
2023-04-23T02:51:26.547Z,32.86
2023-04-23T02:52:26.515Z,32.86
2023-04-23T02:53:26.470Z,32.76
2023-04-23T02:54:26.430Z,32.95
2023-04-23T02:55:26.379Z,32.78
2023-04-23T02:56:26.332Z,32.67
2023-04-23T02:57:26.302Z,32.76
2023-04-23T02:58:26.259Z,32.96
2023-04-23T02:59:26.204Z,32.69
2023-04-23T03:00:26.164Z,32.75
2023-04-23T03:01:26.265Z,32.76
2023-04-23T03:02:26.174Z,32.83
2023-04-23T03:03:26.254Z,32.60
2023-04-23T03:04:25.974Z,32.79
2023-04-23T03:05:25.973Z,32.70
2023-04-23T03:06:25.869Z,32.75
2023-04-23T03:07:25.829Z,32.67
2023-04-23T03:08:25.780Z,32.70
2023-04-23T03:09:25.729Z,32.64
2023-04-23T03:10:25.692Z,33.01
2023-04-23T03:11:25.649Z,32.96
2023-04-23T03:12:25.613Z,32.91
2023-04-23T03:13:25.585Z,32.92
2023-04-23T03:14:25.524Z,32.86
2023-04-23T03:15:25.481Z,32.99
2023-04-23T03:16:25.493Z,32.77
2023-04-23T03:17:25.453Z,32.70
2023-04-23T03:18:25.359Z,32.80
2023-04-23T03:19:25.314Z,32.80
2023-04-23T03:20:25.271Z,32.92
2023-04-23T03:21:25.226Z,32.96
2023-04-23T03:22:25.186Z,32.83
2023-04-23T03:23:25.153Z,32.82
2023-04-23T03:24:25.092Z,32.83
2023-04-23T03:25:25.042Z,32.71
2023-04-23T03:26:24.993Z,32.69
2023-04-23T03:27:24.956Z,32.72
2023-04-23T03:28:24.902Z,32.83
2023-04-23T03:29:24.858Z,32.70
2023-04-23T03:30:24.817Z,32.85
2023-04-23T03:31:24.813Z,32.81
2023-04-23T03:32:24.749Z,32.85
2023-04-23T03:33:24.671Z,32.82
2023-04-23T03:34:24.612Z,32.86
2023-04-23T03:35:24.570Z,32.74
2023-04-23T03:36:24.524Z,33.00
2023-04-23T03:37:24.482Z,32.94
2023-04-23T03:38:24.441Z,32.78
2023-04-23T03:39:24.402Z,32.86
2023-04-23T03:40:24.348Z,32.68
2023-04-23T03:41:24.310Z,32.96
2023-04-23T03:42:24.282Z,33.03
2023-04-23T03:43:24.228Z,32.75
2023-04-23T03:44:24.174Z,32.99
2023-04-23T03:45:24.134Z,33.08
2023-04-23T03:46:24.142Z,32.81
2023-04-23T03:47:24.064Z,32.84
2023-04-23T03:48:24.007Z,32.80
2023-04-23T03:49:23.966Z,32.80
2023-04-23T03:50:23.921Z,32.75
2023-04-23T03:51:23.870Z,32.75
2023-04-23T03:52:23.822Z,32.88
2023-04-23T03:53:23.810Z,32.98
2023-04-23T03:54:23.749Z,32.90
2023-04-23T03:55:23.688Z,33.04
2023-04-23T03:56:26.445Z,32.95
2023-04-23T03:57:23.563Z,33.04
2023-04-23T03:58:23.468Z,33.11
2023-04-23T03:59:23.379Z,32.92
2023-04-23T04:00:23.284Z,33.28
2023-04-23T04:01:23.204Z,33.09
2023-04-23T04:02:23.301Z,33.12
2023-04-23T04:03:23.212Z,32.98
2023-04-23T04:04:23.203Z,32.98
2023-04-23T04:05:22.910Z,33.15
2023-04-23T04:06:22.757Z,33.03
2023-04-23T04:07:22.675Z,33.12
2023-04-23T04:08:22.573Z,33.33
2023-04-23T04:09:22.491Z,33.26
2023-04-23T04:10:22.398Z,32.98
2023-04-23T04:11:22.302Z,33.03
2023-04-23T04:12:22.239Z,33.10
2023-04-23T04:13:22.131Z,33.21
2023-04-23T04:14:22.048Z,33.10
2023-04-23T04:15:21.920Z,33.20
2023-04-23T04:16:21.867Z,33.30
2023-04-23T04:17:21.732Z,33.24
2023-04-23T04:18:21.627Z,32.96
2023-04-23T04:19:21.526Z,33.22
2023-04-23T04:20:21.436Z,33.30
2023-04-23T04:21:21.341Z,33.36
2023-04-23T04:22:21.236Z,33.24
2023-04-23T04:23:21.145Z,33.18
2023-04-23T04:24:21.040Z,33.07
2023-04-23T04:25:20.952Z,33.02
2023-04-23T04:26:20.841Z,33.29
2023-04-23T04:27:20.767Z,33.45
2023-04-23T04:28:20.651Z,33.47
2023-04-23T04:29:20.548Z,33.15
2023-04-23T04:30:20.447Z,33.09
2023-04-23T04:31:20.475Z,33.33
2023-04-23T04:32:20.284Z,33.20
2023-04-23T04:33:20.154Z,33.19
2023-04-23T04:34:20.047Z,33.10
2023-04-23T04:35:19.960Z,33.29
2023-04-23T04:36:19.907Z,33.20
2023-04-23T04:37:19.856Z,33.33
2023-04-23T04:38:19.816Z,33.50
2023-04-23T04:39:19.762Z,33.41
2023-04-23T04:40:19.723Z,33.27
2023-04-23T04:41:19.674Z,33.10
2023-04-23T04:42:19.621Z,32.95
2023-04-23T04:43:19.577Z,32.95
2023-04-23T04:44:19.533Z,33.21
2023-04-23T04:45:19.483Z,33.34
2023-04-23T04:46:19.458Z,33.27
2023-04-23T04:47:19.415Z,33.41
2023-04-23T04:48:19.361Z,33.38
2023-04-23T04:49:19.336Z,33.13
2023-04-23T04:50:19.298Z,33.26
2023-04-23T04:51:19.243Z,33.22
2023-04-23T04:52:19.230Z,33.26
2023-04-23T04:53:19.191Z,33.28
2023-04-23T04:54:19.218Z,33.38
2023-04-23T04:55:19.102Z,33.18
2023-04-23T04:56:19.059Z,33.16
2023-04-23T04:57:19.028Z,33.25
2023-04-23T04:58:18.989Z,33.71
2023-04-23T04:59:18.997Z,33.84
2023-04-23T05:00:18.942Z,33.69
2023-04-23T05:01:18.892Z,33.54
2023-04-23T05:02:18.893Z,33.45
2023-04-23T05:03:18.860Z,33.39
2023-04-23T05:04:18.929Z,33.41
2023-04-23T05:05:18.734Z,33.57
2023-04-23T05:06:18.689Z,33.41
2023-04-23T05:07:18.666Z,33.37
2023-04-23T05:08:18.711Z,33.41
2023-04-23T05:09:18.585Z,33.37
2023-04-23T05:10:18.565Z,33.36
2023-04-23T05:11:18.513Z,33.52
2023-04-23T05:12:18.463Z,33.41
2023-04-23T05:13:18.440Z,33.31
2023-04-23T05:14:18.396Z,33.39
2023-04-23T05:15:18.345Z,33.55
2023-04-23T05:16:18.326Z,33.27
2023-04-23T05:17:18.274Z,33.60
2023-04-23T05:18:18.239Z,33.48
2023-04-23T05:19:18.189Z,33.17
2023-04-23T05:20:18.138Z,33.31
2023-04-23T05:21:18.090Z,33.25
2023-04-23T05:22:18.052Z,33.31
2023-04-23T05:23:18.010Z,33.27
2023-04-23T05:24:17.973Z,33.28
2023-04-23T05:25:17.925Z,33.21
2023-04-23T05:26:17.869Z,33.11
2023-04-23T05:27:17.841Z,33.39
2023-04-23T05:28:17.796Z,33.03
2023-04-23T05:29:17.795Z,33.18
2023-04-23T05:30:17.696Z,33.04
2023-04-23T05:31:17.651Z,32.89
2023-04-23T05:32:17.666Z,33.24
2023-04-23T05:33:17.553Z,33.20
2023-04-23T05:34:17.511Z,33.20
2023-04-23T05:35:17.469Z,33.21
2023-04-23T05:36:17.419Z,33.30
2023-04-23T05:37:17.341Z,33.22
2023-04-23T05:38:17.288Z,33.15
2023-04-23T05:39:17.245Z,33.15
2023-04-23T05:40:17.167Z,33.18
2023-04-23T05:41:17.112Z,33.12
2023-04-23T05:42:17.065Z,33.23
2023-04-23T05:43:17.014Z,33.21
2023-04-23T05:44:17.001Z,33.28
2023-04-23T05:45:16.917Z,33.14
2023-04-23T05:46:16.914Z,33.09
2023-04-23T05:47:16.803Z,33.26
2023-04-23T05:48:16.747Z,33.07
2023-04-23T05:49:16.696Z,33.13
2023-04-23T05:50:16.642Z,33.02
2023-04-23T05:51:16.582Z,33.00
2023-04-23T05:52:16.530Z,33.09
2023-04-23T05:53:16.480Z,33.07
2023-04-23T05:54:16.423Z,32.97
2023-04-23T05:55:16.361Z,32.88
2023-04-23T05:56:16.314Z,32.98
2023-04-23T05:57:16.254Z,32.86
2023-04-23T05:58:16.197Z,32.99
2023-04-23T05:59:16.145Z,32.94
2023-04-23T06:00:16.075Z,32.75
2023-04-23T06:01:16.035Z,32.69
2023-04-23T06:02:16.073Z,32.66
2023-04-23T06:03:16.023Z,32.63
2023-04-23T06:04:16.105Z,32.62
2023-04-23T06:05:16.096Z,32.82
2023-04-23T06:06:15.762Z,32.74
2023-04-23T06:07:15.713Z,32.54
2023-04-23T06:08:15.664Z,32.47
2023-04-23T06:09:15.610Z,32.60
2023-04-23T06:10:15.558Z,32.80
2023-04-23T06:11:15.520Z,32.54
2023-04-23T06:12:15.437Z,32.73
2023-04-23T06:13:15.366Z,32.73
2023-04-23T06:14:15.303Z,32.54
2023-04-23T06:15:15.241Z,32.44
2023-04-23T06:16:15.184Z,32.36
2023-04-23T06:17:15.119Z,32.42
2023-04-23T06:18:15.077Z,32.54
2023-04-23T06:19:14.985Z,32.61
2023-04-23T06:20:14.929Z,32.61
2023-04-23T06:21:14.860Z,32.62
2023-04-23T06:22:14.796Z,32.60
2023-04-23T06:23:14.738Z,32.56
2023-04-23T06:24:14.674Z,32.46
2023-04-23T06:25:14.634Z,32.45
2023-04-23T06:26:14.562Z,32.39
2023-04-23T06:27:14.497Z,32.28
2023-04-23T06:28:14.431Z,32.23
2023-04-23T06:29:14.361Z,32.27
2023-04-23T06:30:14.308Z,32.45
2023-04-23T06:31:14.244Z,32.38
2023-04-23T06:32:14.161Z,32.35
2023-04-23T06:33:14.094Z,32.41
2023-04-23T06:34:14.023Z,32.41
2023-04-23T06:35:13.956Z,32.20
2023-04-23T06:36:13.911Z,32.03
2023-04-23T06:37:13.840Z,32.06
2023-04-23T06:38:13.750Z,31.99
2023-04-23T06:39:13.671Z,31.87
2023-04-23T06:40:13.584Z,31.74
2023-04-23T06:41:13.510Z,31.74
2023-04-23T06:42:13.427Z,31.65
2023-04-23T06:43:13.344Z,31.60
2023-04-23T06:44:13.271Z,31.54
2023-04-23T06:45:14.148Z,31.50
2023-04-23T06:46:13.110Z,31.49
2023-04-23T06:47:13.059Z,31.48
2023-04-23T06:48:12.970Z,31.49
2023-04-23T06:49:12.845Z,31.51
2023-04-23T06:50:12.777Z,31.50
2023-04-23T06:51:12.753Z,31.49
2023-04-23T06:52:12.663Z,31.46
2023-04-23T06:53:12.572Z,31.45
2023-04-23T06:54:12.465Z,31.43
2023-04-23T06:55:12.392Z,31.37
2023-04-23T06:56:12.319Z,31.37
2023-04-23T06:57:12.251Z,31.37
2023-04-23T06:58:13.596Z,31.35
2023-04-23T06:59:12.144Z,31.37
2023-04-23T07:00:12.055Z,31.35
2023-04-23T07:01:12.091Z,31.35
2023-04-23T07:02:11.939Z,31.35
2023-04-23T07:03:11.909Z,31.35
2023-04-23T07:04:11.760Z,31.37
2023-04-23T07:05:11.723Z,31.37
2023-04-23T07:06:11.709Z,31.36
2023-04-23T07:07:11.797Z,31.36
2023-04-23T07:08:11.697Z,31.33
2023-04-23T07:09:11.638Z,31.34
2023-04-23T07:10:11.548Z,31.35
2023-04-23T07:11:11.450Z,31.33
2023-04-23T07:12:11.356Z,31.33
2023-04-23T07:13:11.261Z,31.35
2023-04-23T07:14:11.255Z,31.31
2023-04-23T07:15:11.258Z,31.30
2023-04-23T07:16:11.178Z,31.30
2023-04-23T07:17:11.098Z,31.29
2023-04-23T07:18:11.181Z,31.28
2023-04-23T07:19:10.877Z,31.28
2023-04-23T07:20:10.789Z,31.27
2023-04-23T07:21:10.766Z,31.27
2023-04-23T07:22:10.670Z,31.22
2023-04-23T07:23:10.579Z,31.21
2023-04-23T07:24:10.473Z,31.19
2023-04-23T07:25:10.407Z,31.16
2023-04-23T07:26:10.304Z,31.14
2023-04-23T07:27:10.247Z,31.12
2023-04-23T07:28:10.232Z,31.12
2023-04-23T07:29:10.143Z,31.14
2023-04-23T07:30:10.072Z,31.13
2023-04-23T07:31:10.001Z,31.11
2023-04-23T07:32:09.939Z,31.12
2023-04-23T07:33:09.882Z,31.10
2023-04-23T07:34:09.836Z,31.09
2023-04-23T07:35:09.796Z,31.09
2023-04-23T07:36:09.752Z,31.08
2023-04-23T07:37:09.702Z,31.03
2023-04-23T07:38:09.652Z,30.97
2023-04-23T07:39:09.625Z,30.95
2023-04-23T07:40:09.565Z,30.94
2023-04-23T07:41:09.553Z,30.93
2023-04-23T07:42:09.491Z,30.91
2023-04-23T07:43:09.707Z,30.90
2023-04-23T07:44:09.436Z,30.85
2023-04-23T07:45:09.406Z,30.81
2023-04-23T07:46:09.438Z,30.82
2023-04-23T07:47:09.331Z,30.78
2023-04-23T07:48:09.304Z,30.78
2023-04-23T07:49:09.253Z,30.79
2023-04-23T07:50:09.216Z,30.78
2023-04-23T07:51:09.171Z,30.76
2023-04-23T07:52:09.192Z,30.75
2023-04-23T07:53:09.077Z,30.74
2023-04-23T07:54:09.021Z,30.67
2023-04-23T07:55:08.972Z,30.67
2023-04-23T07:56:08.943Z,30.61
2023-04-23T07:57:08.896Z,30.56
2023-04-23T07:58:08.816Z,30.55
2023-04-23T07:59:08.763Z,30.53
2023-04-23T08:00:08.700Z,30.50
2023-04-23T08:01:08.641Z,30.49
2023-04-23T08:02:08.717Z,30.46
2023-04-23T08:03:08.630Z,30.42
2023-04-23T08:04:08.806Z,30.41
2023-04-23T08:05:08.548Z,30.39
2023-04-23T08:06:08.285Z,30.36
2023-04-23T08:07:08.205Z,30.33
2023-04-23T08:08:08.131Z,30.31
2023-04-23T08:09:08.038Z,30.30
2023-04-23T08:10:07.986Z,30.27
2023-04-23T08:11:07.880Z,30.27
2023-04-23T08:12:07.791Z,30.22
2023-04-23T08:13:07.718Z,30.21
2023-04-23T08:14:07.612Z,30.18
2023-04-23T08:15:07.637Z,30.12
2023-04-23T08:16:07.456Z,30.10
2023-04-23T08:17:07.326Z,30.07
2023-04-23T08:18:07.221Z,30.06
2023-04-23T08:19:07.126Z,30.04
2023-04-23T08:20:07.020Z,30.01
2023-04-23T08:21:06.908Z,30.00
2023-04-23T08:22:06.824Z,29.96
2023-04-23T08:23:06.705Z,29.94
2023-04-23T08:24:06.595Z,29.90
2023-04-23T08:25:06.489Z,29.88
2023-04-23T08:26:06.394Z,29.87
2023-04-23T08:27:06.274Z,29.84
2023-04-23T08:28:06.165Z,29.81
2023-04-23T08:29:06.083Z,29.80
2023-04-23T08:30:05.992Z,29.80
2023-04-23T08:31:19.039Z,29.78
2023-04-23T08:32:06.824Z,29.75
2023-04-23T08:33:05.752Z,29.73
2023-04-23T08:34:05.573Z,29.73
2023-04-23T08:35:05.554Z,29.72
2023-04-23T08:36:05.421Z,29.68
2023-04-23T08:37:05.210Z,29.66
2023-04-23T08:38:05.112Z,29.65
2023-04-23T08:39:04.997Z,29.67
2023-04-23T08:40:04.878Z,29.66
2023-04-23T08:41:04.755Z,29.66
2023-04-23T08:42:04.638Z,29.64
2023-04-23T08:43:04.534Z,29.61
2023-04-23T08:44:04.485Z,29.63
2023-04-23T08:45:04.447Z,29.63
2023-04-23T08:46:04.355Z,29.60
2023-04-23T08:47:04.295Z,29.61
2023-04-23T08:48:04.249Z,29.66
2023-04-23T08:49:04.169Z,29.64
2023-04-23T08:50:04.171Z,29.59
2023-04-23T08:51:04.073Z,29.59
2023-04-23T08:52:04.051Z,29.55
2023-04-23T08:53:03.983Z,29.57
2023-04-23T08:54:03.925Z,29.62
2023-04-23T08:55:03.838Z,29.67
2023-04-23T08:56:03.771Z,29.66
2023-04-23T08:57:03.720Z,29.60
2023-04-23T08:58:03.789Z,29.63
2023-04-23T08:59:03.595Z,29.57
2023-04-23T09:00:03.546Z,29.52
2023-04-23T09:01:03.540Z,29.54
2023-04-23T09:02:03.436Z,29.55
2023-04-23T09:03:03.521Z,29.58
2023-04-23T09:04:03.324Z,29.61
2023-04-23T09:05:03.246Z,29.68
2023-04-23T09:06:03.210Z,29.69
2023-04-23T09:07:03.141Z,29.73
2023-04-23T09:08:03.079Z,29.75
2023-04-23T09:09:03.032Z,29.78
2023-04-23T09:10:02.949Z,29.81
2023-04-23T09:11:02.903Z,29.86
2023-04-23T09:12:02.818Z,29.85
2023-04-23T09:13:02.707Z,29.87
2023-04-23T09:14:02.600Z,29.90
2023-04-23T09:15:02.485Z,29.92
2023-04-23T09:16:02.386Z,29.89
2023-04-23T09:17:02.319Z,29.85
2023-04-23T09:18:02.272Z,29.81
2023-04-23T09:19:02.147Z,29.75
2023-04-23T09:20:02.020Z,29.78
2023-04-23T09:21:01.944Z,29.85
2023-04-23T09:22:01.852Z,29.88
2023-04-23T09:23:01.732Z,29.90
2023-04-23T09:24:01.645Z,29.93
2023-04-23T09:25:01.523Z,29.97
2023-04-23T09:26:01.424Z,30.02
2023-04-23T09:27:01.344Z,30.04
2023-04-23T09:28:01.214Z,29.98
2023-04-23T09:29:01.134Z,29.91
2023-04-23T09:30:01.124Z,29.88
2023-04-23T09:31:00.988Z,29.86
2023-04-23T09:32:00.898Z,29.85
2023-04-23T09:33:00.843Z,29.83
2023-04-23T09:34:00.743Z,29.82
2023-04-23T09:35:00.659Z,29.81
2023-04-23T09:36:00.575Z,29.80
2023-04-23T09:37:00.524Z,29.81
2023-04-23T09:38:00.446Z,29.81
2023-04-23T09:39:00.402Z,29.78
2023-04-23T09:40:00.319Z,29.77
2023-04-23T09:41:00.281Z,29.76
2023-04-23T09:42:00.175Z,29.77
2023-04-23T09:43:00.117Z,29.76
2023-04-23T09:44:00.075Z,29.76
2023-04-23T09:45:00.028Z,29.77
2023-04-23T09:46:00.027Z,29.75
2023-04-23T09:46:59.911Z,29.78
2023-04-23T09:47:59.884Z,29.76
2023-04-23T09:48:59.808Z,29.77
2023-04-23T09:49:59.755Z,29.77
2023-04-23T09:50:59.695Z,29.78
2023-04-23T09:51:59.608Z,29.77
2023-04-23T09:52:59.537Z,29.76
2023-04-23T09:53:59.473Z,29.76
2023-04-23T09:54:59.422Z,29.76
2023-04-23T09:55:59.370Z,29.77
2023-04-23T09:56:59.317Z,29.75
2023-04-23T09:57:59.255Z,29.76
2023-04-23T09:58:59.194Z,29.83
2023-04-23T10:00:11.156Z,29.86
2023-04-23T10:01:00.069Z,29.89
2023-04-23T10:01:58.880Z,29.84
2023-04-23T10:02:58.954Z,29.83
2023-04-23T10:03:58.808Z,29.82
2023-04-23T10:05:10.105Z,29.80
2023-04-23T10:06:01.673Z,29.79
2023-04-23T10:07:13.767Z,29.80
2023-04-23T10:07:59.168Z,29.80
2023-04-23T10:08:58.046Z,29.82
2023-04-23T10:09:57.924Z,29.78
2023-04-23T10:11:09.650Z,29.79
2023-04-23T10:11:58.682Z,29.83
2023-04-23T10:12:57.562Z,29.86
2023-04-23T10:13:57.450Z,29.91
2023-04-23T10:14:57.305Z,29.90
2023-04-23T10:16:04.476Z,29.92
2023-04-23T10:16:58.194Z,29.93
2023-04-23T10:17:56.962Z,29.94
2023-04-23T10:18:56.821Z,29.92
2023-04-23T10:19:56.686Z,29.92
2023-04-23T10:20:56.564Z,29.93
2023-04-23T10:22:02.539Z,29.94
2023-04-23T10:22:57.304Z,29.98
2023-04-23T10:23:56.181Z,29.99
2023-04-23T10:24:56.363Z,29.99
2023-04-23T10:25:55.936Z,29.98
2023-04-23T10:26:55.814Z,29.95
2023-04-23T10:27:55.692Z,29.95
2023-04-23T10:28:55.581Z,29.97
2023-04-23T10:29:55.443Z,30.00
2023-04-23T10:30:55.351Z,29.98
2023-04-23T10:31:55.297Z,29.97
2023-04-23T10:32:55.318Z,29.96
2023-04-23T10:33:58.674Z,29.98
2023-04-23T10:34:55.071Z,30.00
2023-04-23T10:35:54.959Z,30.01
2023-04-23T10:36:54.844Z,30.05
2023-04-23T10:37:54.742Z,30.05
2023-04-23T10:38:58.392Z,30.05
2023-04-23T10:39:55.496Z,30.08
2023-04-23T10:40:54.377Z,30.07
2023-04-23T10:41:54.261Z,30.04
2023-04-23T10:42:54.149Z,30.07
2023-04-23T10:43:54.027Z,30.08
2023-04-23T10:44:59.488Z,30.09
2023-04-23T10:45:54.795Z,30.11
2023-04-23T10:46:53.789Z,30.18
2023-04-23T10:47:53.599Z,30.17
2023-04-23T10:48:53.439Z,30.20
2023-04-23T10:49:53.318Z,30.22
2023-04-23T10:51:06.895Z,30.23
2023-04-23T10:52:52.959Z,30.27
2023-04-23T10:53:52.866Z,30.32
2023-04-23T10:54:52.763Z,30.31
2023-04-23T10:55:52.653Z,30.32
2023-04-23T10:56:52.516Z,30.34
2023-04-23T10:57:52.405Z,30.37
2023-04-23T10:58:52.313Z,30.36
2023-04-23T10:59:52.174Z,30.40
2023-04-23T11:00:52.055Z,30.41
2023-04-23T11:01:52.045Z,30.39
2023-04-23T11:02:51.888Z,30.41
2023-04-23T11:03:51.879Z,30.43
2023-04-23T11:04:51.633Z,30.40
2023-04-23T11:05:51.472Z,30.40
2023-04-23T11:06:51.344Z,30.43
2023-04-23T11:07:51.223Z,30.44
2023-04-23T11:08:51.420Z,30.44
2023-04-23T11:09:51.982Z,30.48
2023-04-23T11:10:50.873Z,30.48
2023-04-23T11:11:50.753Z,30.54
2023-04-23T11:12:50.629Z,30.58
2023-04-23T11:13:50.527Z,30.52
2023-04-23T11:14:50.423Z,30.53
2023-04-23T11:15:50.287Z,30.52
2023-04-23T11:16:50.318Z,30.52
2023-04-23T11:17:50.085Z,30.52
2023-04-23T11:18:49.937Z,30.54
2023-04-23T11:19:49.820Z,30.55
2023-04-23T11:20:49.730Z,30.58
2023-04-23T11:21:49.647Z,30.63
2023-04-23T11:22:49.558Z,30.66
2023-04-23T11:23:49.464Z,30.62
2023-04-23T11:24:50.969Z,30.64
2023-04-23T11:25:49.289Z,30.62
2023-04-23T11:26:49.153Z,30.66
2023-04-23T11:27:49.052Z,30.64
2023-04-23T11:28:48.989Z,30.68
2023-04-23T11:29:49.373Z,30.67
2023-04-23T11:30:48.781Z,30.68
2023-04-23T11:32:01.681Z,30.74
2023-04-23T11:32:49.777Z,30.73
2023-04-23T11:33:48.454Z,30.74
2023-04-23T11:34:48.327Z,30.75
2023-04-23T11:35:48.228Z,30.76
2023-04-23T11:36:48.109Z,30.82
2023-04-23T11:37:48.005Z,30.80
2023-04-23T11:38:47.890Z,30.82
2023-04-23T11:39:47.821Z,30.83
2023-04-23T11:40:47.659Z,30.83
2023-04-23T11:41:47.566Z,30.86
2023-04-23T11:42:47.438Z,30.87
2023-04-23T11:43:47.325Z,30.84
2023-04-23T11:44:47.210Z,30.87
2023-04-23T11:45:47.128Z,30.89
2023-04-23T11:46:46.981Z,30.91
2023-04-23T11:47:46.891Z,30.90
2023-04-23T11:48:46.749Z,30.92
2023-04-23T11:49:46.927Z,30.93
2023-04-23T11:50:46.522Z,30.87
2023-04-23T11:51:46.425Z,30.94
2023-04-23T11:52:46.305Z,30.94
2023-04-23T11:53:46.196Z,30.91
2023-04-23T11:54:46.088Z,31.02
2023-04-23T11:55:45.972Z,30.93
2023-04-23T11:56:45.852Z,30.95
2023-04-23T11:57:45.739Z,30.95
2023-04-23T11:58:45.640Z,31.00
2023-04-23T11:59:45.627Z,31.02
2023-04-23T12:00:45.416Z,30.97
2023-04-23T12:01:45.339Z,31.03
2023-04-23T12:02:45.353Z,30.99
2023-04-23T12:03:45.257Z,31.02
2023-04-23T12:04:44.988Z,31.03
2023-04-23T12:05:44.910Z,31.02
2023-04-23T12:06:44.776Z,31.01
2023-04-23T12:07:44.667Z,31.04
2023-04-23T12:08:44.586Z,31.04
2023-04-23T12:09:44.473Z,31.04
2023-04-23T12:10:44.388Z,31.04
2023-04-23T12:11:44.291Z,31.06
2023-04-23T12:12:44.795Z,31.08
2023-04-23T12:13:44.076Z,31.12
2023-04-23T12:14:43.980Z,31.09
2023-04-23T12:15:43.895Z,31.14
2023-04-23T12:16:43.795Z,31.11
2023-04-23T12:17:43.729Z,31.09
2023-04-23T12:18:43.609Z,31.15
2023-04-23T12:19:43.776Z,31.16
2023-04-23T12:20:43.420Z,31.08
2023-04-23T12:21:43.315Z,31.09
2023-04-23T12:22:43.215Z,31.10
2023-04-23T12:23:43.113Z,31.13
2023-04-23T12:24:43.020Z,31.16
2023-04-23T12:25:42.922Z,31.20
2023-04-23T12:26:42.863Z,31.15
2023-04-23T12:27:42.810Z,31.24
2023-04-23T12:28:42.628Z,31.17
2023-04-23T12:29:42.842Z,31.17
2023-04-23T12:30:42.441Z,31.18
2023-04-23T12:31:42.455Z,31.13
2023-04-23T12:32:42.277Z,31.14
2023-04-23T12:33:42.136Z,31.20
2023-04-23T12:34:42.281Z,31.27
2023-04-23T12:35:41.942Z,31.16
2023-04-23T12:36:41.832Z,31.12
2023-04-23T12:37:41.737Z,31.13
2023-04-23T12:38:41.654Z,31.12
2023-04-23T12:39:41.919Z,31.20
2023-04-23T12:40:41.487Z,31.25
2023-04-23T12:41:41.385Z,31.19
2023-04-23T12:42:41.297Z,31.34
2023-04-23T12:43:41.196Z,31.26
2023-04-23T12:44:41.112Z,31.23
2023-04-23T12:45:41.029Z,31.37
2023-04-23T12:46:40.952Z,31.29
2023-04-23T12:47:40.869Z,31.32
2023-04-23T12:48:40.770Z,31.26
2023-04-23T12:49:40.996Z,31.27
2023-04-23T12:50:40.600Z,31.31
2023-04-23T12:51:40.521Z,31.29
2023-04-23T12:52:40.430Z,31.30